createdAt,value
2019-02-17T00:01:45.910Z,1.10
2019-02-17T00:04:16.629Z,1.10
2019-02-17T00:06:47.594Z,1.00
2019-02-17T00:09:19.035Z,1.00
2019-02-17T00:11:49.515Z,0.90
2019-02-17T00:14:19.987Z,1.00
2019-02-17T00:16:50.699Z,0.90
2019-02-17T00:19:21.230Z,1.00
2019-02-17T00:21:51.638Z,1.00
2019-02-17T00:24:22.042Z,1.00
2019-02-17T00:26:52.506Z,1.10
2019-02-17T00:29:22.962Z,1.10
2019-02-17T00:31:54.550Z,1.00
2019-02-17T00:34:25.094Z,1.00
2019-02-17T00:36:55.486Z,1.00
2019-02-17T00:39:25.869Z,1.00
2019-02-17T00:41:56.200Z,1.00
2019-02-17T00:44:26.575Z,1.00
2019-02-17T00:46:56.862Z,1.00
2019-02-17T00:49:27.277Z,1.10
2019-02-17T00:51:58.770Z,1.00
2019-02-17T00:54:29.183Z,1.00
2019-02-17T00:56:59.557Z,1.00
2019-02-17T00:59:30.002Z,1.00
2019-02-17T01:02:00.406Z,1.00
2019-02-17T01:04:30.814Z,1.00
2019-02-17T01:07:01.170Z,1.00
2019-02-17T01:09:31.514Z,1.00
2019-02-17T01:12:01.821Z,1.00
2019-02-17T01:14:32.205Z,0.80
2019-02-17T01:17:02.719Z,0.70
2019-02-17T01:19:33.101Z,0.60
2019-02-17T01:22:03.448Z,0.50
2019-02-17T01:24:33.982Z,0.40
2019-02-17T01:27:04.499Z,0.30
2019-02-17T01:29:34.955Z,0.30
2019-02-17T01:32:05.260Z,0.30
2019-02-17T01:34:35.670Z,0.30
2019-02-17T01:37:07.461Z,0.40
2019-02-17T01:39:38.014Z,0.50
2019-02-17T01:42:08.299Z,0.50
2019-02-17T01:44:38.568Z,0.50
2019-02-17T01:47:08.840Z,0.50
2019-02-17T01:49:39.174Z,0.50
2019-02-17T01:52:09.193Z,0.50
2019-02-17T01:54:39.577Z,0.40
2019-02-17T01:57:10.924Z,0.40
2019-02-17T01:59:41.278Z,0.30
2019-02-17T02:02:11.873Z,0.20
2019-02-17T02:04:42.299Z,0.10
2019-02-17T02:07:12.618Z,0.10
2019-02-17T02:09:42.924Z,0.10
2019-02-17T02:12:13.212Z,0.10
2019-02-17T02:14:43.684Z,0.10
2019-02-17T02:17:14.078Z,0.00
2019-02-17T02:19:44.453Z,0.00
2019-02-17T02:22:14.862Z,0.00
2019-02-17T02:24:45.173Z,-0.10
2019-02-17T02:27:15.541Z,-0.10
2019-02-17T02:29:45.843Z,-0.10
2019-02-17T02:32:16.249Z,-0.10
2019-02-17T02:34:46.609Z,0.00
2019-02-17T02:37:17.026Z,0.20
2019-02-17T02:39:47.581Z,0.20
2019-02-17T02:42:18.201Z,0.20
2019-02-17T02:44:48.766Z,0.20
2019-02-17T02:47:19.292Z,0.10
2019-02-17T02:50:01.770Z,0.00
2019-02-17T02:52:32.265Z,-0.10
2019-02-17T02:55:02.906Z,-0.30
2019-02-17T02:57:33.357Z,-0.40
2019-02-17T03:00:04.059Z,-0.40
2019-02-17T03:02:34.531Z,-0.50
2019-02-17T03:05:06.168Z,-0.50
2019-02-17T03:07:36.975Z,-0.50
2019-02-17T03:10:08.163Z,-0.40
2019-02-17T03:12:38.779Z,-0.40
2019-02-17T03:15:10.529Z,-0.30
2019-02-17T03:17:41.166Z,-0.30
2019-02-17T03:20:11.635Z,-0.10
2019-02-17T03:22:41.946Z,-0.10
2019-02-17T03:25:12.628Z,-0.20
2019-02-17T03:27:42.991Z,-0.20
2019-02-17T03:30:13.408Z,-0.30
2019-02-17T03:32:45.067Z,-0.40
2019-02-17T03:35:15.471Z,-0.50
2019-02-17T03:37:45.920Z,-0.60
2019-02-17T03:40:17.506Z,-0.60
2019-02-17T03:42:47.942Z,-0.60
2019-02-17T03:45:18.367Z,-0.70
2019-02-17T03:47:48.806Z,-0.70
2019-02-17T03:50:19.436Z,-0.70
2019-02-17T03:52:49.817Z,-0.60
2019-02-17T03:55:20.524Z,-0.60
2019-02-17T03:57:50.890Z,-0.60
2019-02-17T04:00:21.246Z,-0.50
2019-02-17T04:02:51.687Z,-0.50
2019-02-17T04:05:22.067Z,-0.60
2019-02-17T04:07:52.506Z,-0.70
2019-02-17T04:10:23.191Z,-0.70
2019-02-17T04:12:53.456Z,-0.70
2019-02-17T04:15:23.818Z,-0.80
2019-02-17T04:17:54.351Z,-0.70
2019-02-17T04:20:24.891Z,-0.80
2019-02-17T04:22:55.357Z,-0.80
2019-02-17T04:25:25.875Z,-0.80
2019-02-17T04:27:56.207Z,-0.90
2019-02-17T04:30:29.608Z,-0.90
2019-02-17T04:32:58.571Z,-0.90
2019-02-17T04:35:28.965Z,-1.00
2019-02-17T04:37:59.780Z,-1.00
2019-02-17T04:40:30.069Z,-1.00
2019-02-17T04:43:00.555Z,-1.00
2019-02-17T04:45:31.020Z,-1.00
2019-02-17T04:48:01.352Z,-0.90
2019-02-17T04:50:31.683Z,-0.80
2019-02-17T04:53:02.113Z,-0.70
2019-02-17T04:55:32.468Z,-0.80
2019-02-17T04:58:02.821Z,-0.90
2019-02-17T05:00:40.098Z,-0.90
2019-02-17T05:03:05.279Z,-0.80
2019-02-17T05:05:35.678Z,-0.80
2019-02-17T05:08:06.191Z,-0.80
2019-02-17T05:10:36.517Z,-0.90
2019-02-17T05:13:06.880Z,-0.90
2019-02-17T05:15:37.308Z,-1.00
2019-02-17T05:18:07.556Z,-1.00
2019-02-17T05:20:37.929Z,-0.90
2019-02-17T05:23:08.424Z,-1.00
2019-02-17T05:25:38.874Z,-0.90
2019-02-17T05:28:09.309Z,-0.90
2019-02-17T05:30:51.790Z,-1.00
2019-02-17T05:33:11.687Z,-0.90
2019-02-17T05:35:42.014Z,-0.90
2019-02-17T05:38:12.351Z,-0.80
2019-02-17T05:40:42.721Z,-0.90
2019-02-17T05:43:13.151Z,-0.90
2019-02-17T05:45:43.498Z,-1.00
2019-02-17T05:48:13.864Z,-1.00
2019-02-17T05:50:44.168Z,-1.00
2019-02-17T05:53:15.503Z,-1.00
2019-02-17T05:55:45.793Z,-1.00
2019-02-17T05:58:16.085Z,-1.00
2019-02-17T06:00:46.522Z,-1.00
2019-02-17T06:03:16.836Z,-1.00
2019-02-17T06:05:47.125Z,-0.90
2019-02-17T06:08:17.448Z,-1.00
2019-02-17T06:10:47.859Z,-1.00
2019-02-17T06:13:18.186Z,-1.10
2019-02-17T06:15:48.666Z,-1.10
2019-02-17T06:18:18.936Z,-1.00
2019-02-17T06:20:49.236Z,-1.00
2019-02-17T06:23:19.488Z,-1.00
2019-02-17T06:25:49.954Z,-1.00
2019-02-17T06:28:20.273Z,-1.00
2019-02-17T06:30:50.744Z,-1.00
2019-02-17T06:33:21.158Z,-1.00
2019-02-17T06:35:51.414Z,-1.00
2019-02-17T06:38:21.672Z,-1.10
2019-02-17T06:40:52.029Z,-1.00
2019-02-17T06:43:22.394Z,-1.00
2019-02-17T06:45:52.709Z,-0.90
2019-02-17T06:48:22.942Z,-1.00
2019-02-17T06:50:53.277Z,-1.00
2019-02-17T06:53:23.659Z,-0.90
2019-02-17T06:55:59.544Z,-0.90
2019-02-17T06:58:29.920Z,-0.80
2019-02-17T07:01:01.655Z,-0.70
2019-02-17T07:03:32.099Z,-0.70
2019-02-17T07:06:10.659Z,-0.60
2019-02-17T07:08:41.056Z,-0.60
2019-02-17T07:11:11.541Z,-0.60
2019-02-17T07:13:41.974Z,-0.50
2019-02-17T07:16:19.310Z,-0.50
2019-02-17T07:18:50.010Z,-0.50
2019-02-17T07:21:20.360Z,-0.40
2019-02-17T07:23:50.624Z,-0.30
2019-02-17T07:26:21.044Z,-0.20
2019-02-17T07:28:51.485Z,-0.10
2019-02-17T07:31:22.637Z,0.00
2019-02-17T07:33:54.858Z,0.00
2019-02-17T07:36:25.281Z,0.10
2019-02-17T07:38:55.631Z,0.10
2019-02-17T07:41:26.259Z,0.30
2019-02-17T07:43:56.950Z,0.30
2019-02-17T07:46:27.374Z,0.40
2019-02-17T07:48:57.800Z,0.40
2019-02-17T07:51:28.391Z,0.50
2019-02-17T07:53:59.160Z,0.50
2019-02-17T07:56:30.413Z,0.60
2019-02-17T07:59:00.773Z,0.70
2019-02-17T08:01:31.264Z,0.70
2019-02-17T08:04:01.730Z,0.80
2019-02-17T08:06:50.849Z,0.80
2019-02-17T08:09:21.161Z,0.90
2019-02-17T08:11:51.532Z,0.90
2019-02-17T08:14:22.037Z,1.00
2019-02-17T08:16:52.612Z,1.10
2019-02-17T08:19:22.856Z,1.20
2019-02-17T08:21:53.186Z,1.30
2019-02-17T08:24:23.558Z,1.40
2019-02-17T08:26:54.064Z,1.50
2019-02-17T08:29:24.652Z,1.70
2019-02-17T08:31:56.199Z,1.80
2019-02-17T08:34:26.750Z,2.00
2019-02-17T08:36:57.283Z,2.10
2019-02-17T08:39:27.742Z,2.30
2019-02-17T08:41:58.340Z,2.40
2019-02-17T08:44:28.752Z,2.50
2019-02-17T08:46:59.165Z,2.70
2019-02-17T08:49:29.496Z,2.80
2019-02-17T08:52:00.912Z,3.00
2019-02-17T08:54:31.489Z,3.10
2019-02-17T08:57:01.996Z,3.20
2019-02-17T08:59:32.906Z,3.30
2019-02-17T09:02:06.259Z,3.50
2019-02-17T09:04:37.717Z,3.60
2019-02-17T09:07:12.702Z,3.70
2019-02-17T09:09:50.600Z,3.80
2019-02-17T09:12:24.480Z,4.00
2019-02-17T09:15:12.985Z,4.10
2019-02-17T09:17:45.412Z,4.30
2019-02-17T09:20:19.988Z,4.50
2019-02-17T09:22:50.579Z,4.60
2019-02-17T09:25:21.233Z,4.60
2019-02-17T09:27:51.697Z,4.70
2019-02-17T09:30:22.307Z,4.90
2019-02-17T09:32:53.399Z,5.10
2019-02-17T09:35:24.036Z,5.20
2019-02-17T09:37:54.476Z,5.40
2019-02-17T09:40:25.160Z,5.60
2019-02-17T09:42:55.727Z,5.70
2019-02-17T09:45:26.434Z,5.80
2019-02-17T09:47:57.321Z,6.00
2019-02-17T09:50:28.046Z,6.20
2019-02-17T09:52:59.726Z,6.30
2019-02-17T09:55:30.302Z,6.40
2019-02-17T09:58:01.166Z,6.70
2019-02-17T10:00:31.684Z,6.80
2019-02-17T10:03:02.269Z,7.00
2019-02-17T10:05:32.838Z,7.20
2019-02-17T10:08:03.404Z,7.30
2019-02-17T10:10:34.037Z,7.40
2019-02-17T10:13:04.590Z,7.40
2019-02-17T10:15:35.375Z,7.60
2019-02-17T10:18:06.029Z,7.90
2019-02-17T10:20:36.621Z,8.00
2019-02-17T10:23:07.360Z,8.00
2019-02-17T10:25:37.920Z,8.00
2019-02-17T10:28:09.246Z,8.20
2019-02-17T10:30:39.795Z,8.30
2019-02-17T10:33:10.262Z,8.30
2019-02-17T10:35:40.872Z,8.60
2019-02-17T10:38:11.556Z,8.80
2019-02-17T10:40:42.162Z,8.90
2019-02-17T10:43:12.677Z,9.10
2019-02-17T10:45:43.240Z,9.20
2019-02-17T10:48:13.862Z,9.40
2019-02-17T10:50:44.287Z,9.50
2019-02-17T10:53:15.022Z,9.50
2019-02-17T10:55:48.696Z,9.60
2019-02-17T10:58:19.477Z,9.70
2019-02-17T11:00:49.879Z,9.70
2019-02-17T11:03:20.371Z,9.90
2019-02-17T11:05:50.846Z,10.00
2019-02-17T11:08:21.485Z,10.10
2019-02-17T11:10:54.714Z,10.30
2019-02-17T11:13:25.260Z,10.30
2019-02-17T11:16:02.372Z,10.40
2019-02-17T11:18:33.255Z,10.50
2019-02-17T11:21:04.154Z,10.70
2019-02-17T11:23:34.906Z,10.80
2019-02-17T11:26:06.313Z,10.90
2019-02-17T11:28:36.871Z,11.00
2019-02-17T11:31:07.567Z,11.00
2019-02-17T11:33:38.287Z,11.00
2019-02-17T11:36:09.112Z,11.20
2019-02-17T11:38:41.011Z,11.40
2019-02-17T11:41:12.667Z,11.60
2019-02-17T11:43:44.466Z,11.70
2019-02-17T11:46:15.514Z,11.80
2019-02-17T11:48:47.281Z,12.00
2019-02-17T11:51:22.970Z,12.00
2019-02-17T11:53:54.777Z,12.20
2019-02-17T11:56:26.866Z,12.30
2019-02-17T11:58:57.685Z,12.20
2019-02-17T12:01:29.422Z,12.30
2019-02-17T12:04:00.555Z,12.40
2019-02-17T12:06:31.201Z,12.60
2019-02-17T12:09:01.813Z,12.60
2019-02-17T12:11:34.132Z,12.70
2019-02-17T12:14:04.856Z,12.70
2019-02-17T12:16:37.265Z,12.70
2019-02-17T12:19:07.413Z,12.90
2019-02-17T12:21:59.701Z,13.00
2019-02-17T12:24:44.232Z,13.00
2019-02-17T12:27:32.368Z,13.10
2019-02-17T12:30:06.498Z,13.20
2019-02-17T12:32:37.177Z,13.30
2019-02-17T12:35:08.126Z,13.30
2019-02-17T12:37:38.647Z,13.40
2019-02-17T12:40:11.751Z,13.40
2019-02-17T12:42:42.261Z,13.50
2019-02-17T12:45:18.047Z,13.60
2019-02-17T12:47:55.410Z,13.80
2019-02-17T12:50:19.306Z,13.80
2019-02-17T12:52:49.751Z,14.00
2019-02-17T12:55:20.586Z,14.10
2019-02-17T12:57:51.077Z,14.40
2019-02-17T13:00:23.686Z,14.60
2019-02-17T13:02:54.469Z,14.60
2019-02-17T13:05:24.955Z,14.70
2019-02-17T13:07:55.443Z,14.80
2019-02-17T13:10:26.485Z,14.70
2019-02-17T13:12:58.443Z,14.80
2019-02-17T13:15:29.092Z,14.80
2019-02-17T13:17:59.918Z,14.90
2019-02-17T13:20:30.529Z,15.00
2019-02-17T13:23:01.521Z,15.10
2019-02-17T13:25:31.965Z,15.00
2019-02-17T13:28:02.761Z,14.90
2019-02-17T13:30:33.482Z,14.90
2019-02-17T13:33:04.393Z,14.80
2019-02-17T13:35:40.565Z,14.90
2019-02-17T13:38:11.659Z,14.90
2019-02-17T13:40:42.272Z,15.10
2019-02-17T13:43:13.037Z,15.00
2019-02-17T13:45:44.849Z,15.10
2019-02-17T13:48:15.675Z,15.20
2019-02-17T13:50:47.306Z,15.20
2019-02-17T13:53:17.946Z,15.30
2019-02-17T13:55:50.284Z,15.30
2019-02-17T13:58:21.112Z,15.30
2019-02-17T14:00:51.783Z,15.30
2019-02-17T14:03:22.147Z,15.20
2019-02-17T14:05:52.902Z,15.30
2019-02-17T14:08:26.912Z,15.30
2019-02-17T14:10:57.966Z,15.20
2019-02-17T14:13:28.640Z,15.30
2019-02-17T14:15:59.177Z,15.40
2019-02-17T14:18:30.240Z,15.30
2019-02-17T14:21:00.791Z,15.20
2019-02-17T14:23:31.337Z,15.20
2019-02-17T14:26:01.792Z,15.20
2019-02-17T14:28:33.621Z,15.10
2019-02-17T14:31:04.348Z,15.10
2019-02-17T14:33:34.888Z,15.10
2019-02-17T14:36:07.227Z,15.10
2019-02-17T14:38:37.703Z,15.10
2019-02-17T14:41:08.693Z,15.00
2019-02-17T14:43:39.437Z,15.00
2019-02-17T14:46:13.689Z,15.00
2019-02-17T14:48:44.794Z,15.00
2019-02-17T14:51:15.446Z,15.00
2019-02-17T14:53:46.313Z,14.90
2019-02-17T14:56:17.137Z,14.90
2019-02-17T14:58:47.713Z,14.90
2019-02-17T15:01:24.416Z,14.90
2019-02-17T15:03:57.975Z,14.80
2019-02-17T15:06:29.738Z,14.70
2019-02-17T15:09:00.487Z,14.70
2019-02-17T15:11:31.038Z,14.60
2019-02-17T15:14:01.754Z,14.60
2019-02-17T15:16:32.611Z,14.60
2019-02-17T15:19:03.442Z,14.60
2019-02-17T15:21:35.701Z,14.60
2019-02-17T15:24:16.695Z,14.50
2019-02-17T15:26:54.036Z,14.40
2019-02-17T15:29:25.640Z,14.20
2019-02-17T15:31:56.381Z,14.20
2019-02-17T15:34:26.862Z,14.10
2019-02-17T15:36:58.027Z,14.00
2019-02-17T15:39:31.939Z,14.00
2019-02-17T15:42:24.174Z,13.80
2019-02-17T15:45:00.912Z,13.70
2019-02-17T15:47:58.239Z,13.60
2019-02-17T15:50:29.293Z,13.50
2019-02-17T15:53:00.308Z,13.50
2019-02-17T15:55:31.299Z,13.40
2019-02-17T15:58:01.880Z,13.20
2019-02-17T16:00:33.103Z,13.10
2019-02-17T16:03:03.695Z,12.90
2019-02-17T16:05:34.328Z,12.70
2019-02-17T16:08:05.326Z,12.60
2019-02-17T16:10:36.016Z,12.60
2019-02-17T16:13:07.803Z,12.40
2019-02-17T16:15:39.058Z,12.30
2019-02-17T16:18:09.607Z,12.10
2019-02-17T16:20:40.326Z,12.10
2019-02-17T16:23:10.840Z,12.00
2019-02-17T16:25:41.881Z,11.90
2019-02-17T16:28:13.273Z,11.70
2019-02-17T16:30:45.152Z,11.60
2019-02-17T16:33:15.928Z,11.60
2019-02-17T16:35:47.105Z,11.40
2019-02-17T16:38:17.571Z,11.10
2019-02-17T16:40:48.219Z,10.90
2019-02-17T16:43:18.962Z,10.70
2019-02-17T16:45:49.963Z,10.50
2019-02-17T16:48:20.366Z,10.30
2019-02-17T16:50:51.189Z,10.10
2019-02-17T16:53:21.721Z,9.90
2019-02-17T16:55:52.316Z,9.80
2019-02-17T16:58:23.336Z,9.80
2019-02-17T17:00:54.114Z,9.70
2019-02-17T17:03:28.803Z,9.50
2019-02-17T17:06:00.318Z,9.50
2019-02-17T17:08:31.124Z,9.40
2019-02-17T17:11:01.904Z,9.20
2019-02-17T17:13:32.719Z,9.00
2019-02-17T17:16:03.683Z,8.90
2019-02-17T17:18:34.663Z,8.80
2019-02-17T17:21:05.386Z,8.60
2019-02-17T17:23:35.762Z,8.60
2019-02-17T17:26:06.296Z,8.40
2019-02-17T17:28:36.795Z,8.40
2019-02-17T17:31:07.293Z,8.40
2019-02-17T17:33:37.893Z,8.30
2019-02-17T17:36:08.565Z,8.30
2019-02-17T17:38:39.175Z,8.20
2019-02-17T17:41:10.733Z,8.30
2019-02-17T17:43:41.587Z,8.20
2019-02-17T17:46:12.298Z,8.10
2019-02-17T17:48:42.956Z,8.00
2019-02-17T17:51:13.629Z,7.90
2019-02-17T17:53:44.441Z,7.80
2019-02-17T17:56:15.429Z,7.70
2019-02-17T17:58:46.298Z,7.60
2019-02-17T18:01:17.139Z,7.70
2019-02-17T18:03:47.990Z,7.70
2019-02-17T18:06:18.834Z,7.90
2019-02-17T18:08:49.688Z,8.00
2019-02-17T18:11:20.406Z,8.00
2019-02-17T18:13:51.243Z,7.90
2019-02-17T18:16:22.242Z,7.70
2019-02-17T18:18:52.770Z,7.50
2019-02-17T18:21:23.470Z,7.30
2019-02-17T18:23:54.061Z,7.10
2019-02-17T18:26:24.808Z,7.10
2019-02-17T18:28:55.533Z,7.00
2019-02-17T18:31:26.378Z,7.00
2019-02-17T18:33:57.255Z,6.90
2019-02-17T18:36:28.369Z,6.90
2019-02-17T18:38:59.060Z,6.90
2019-02-17T18:41:29.662Z,7.00
2019-02-17T18:44:11.233Z,6.80
2019-02-17T18:46:42.131Z,6.60
2019-02-17T18:49:12.896Z,6.60
2019-02-17T18:51:44.057Z,6.70
2019-02-17T18:54:19.542Z,6.50
2019-02-17T18:56:50.185Z,6.40
2019-02-17T18:59:21.174Z,6.20
2019-02-17T19:01:51.747Z,6.20
2019-02-17T19:04:22.894Z,6.20
2019-02-17T19:06:53.723Z,6.10
2019-02-17T19:09:25.920Z,6.00
2019-02-17T19:11:56.722Z,5.90
2019-02-17T19:14:28.794Z,5.80
2019-02-17T19:16:59.869Z,5.80
2019-02-17T19:19:30.455Z,5.70
2019-02-17T19:22:04.469Z,5.60
2019-02-17T19:24:35.377Z,5.60
2019-02-17T19:27:06.104Z,5.50
2019-02-17T19:29:40.245Z,5.40
2019-02-17T19:32:10.931Z,5.30
2019-02-17T19:34:41.847Z,5.20
2019-02-17T19:37:14.353Z,5.20
2019-02-17T19:39:47.850Z,5.10
2019-02-17T19:42:17.429Z,5.10
2019-02-17T19:44:50.646Z,5.10
2019-02-17T19:47:21.143Z,5.10
2019-02-17T19:49:51.685Z,5.00
2019-02-17T19:52:22.609Z,4.90
2019-02-17T19:54:53.265Z,4.90
2019-02-17T19:57:23.948Z,4.80
2019-02-17T19:59:54.360Z,4.80
2019-02-17T20:02:43.767Z,4.60
2019-02-17T20:05:19.960Z,4.60
2019-02-17T20:07:52.803Z,4.60
2019-02-17T20:10:23.808Z,4.50
2019-02-17T20:12:54.625Z,4.50
2019-02-17T20:15:27.394Z,4.50
2019-02-17T20:17:58.594Z,4.40
2019-02-17T20:20:29.297Z,4.40
2019-02-17T20:22:59.878Z,4.30
2019-02-17T20:25:30.395Z,4.30
2019-02-17T20:28:03.534Z,4.20
2019-02-17T20:30:34.306Z,4.10
2019-02-17T20:33:04.871Z,4.20
2019-02-17T20:35:35.503Z,4.10
2019-02-17T20:38:06.031Z,4.10
2019-02-17T20:40:36.838Z,4.00
2019-02-17T20:43:07.601Z,3.90
2019-02-17T20:45:38.233Z,4.00
2019-02-17T20:48:08.788Z,3.90
2019-02-17T20:50:39.149Z,3.80
2019-02-17T20:53:09.914Z,3.70
2019-02-17T20:55:40.538Z,3.60
2019-02-17T20:58:11.060Z,3.60
2019-02-17T21:00:41.563Z,3.60
2019-02-17T21:03:12.040Z,3.60
2019-02-17T21:05:42.659Z,3.60
2019-02-17T21:08:13.319Z,3.50
2019-02-17T21:10:43.848Z,3.40
2019-02-17T21:13:14.309Z,3.40
2019-02-17T21:15:44.713Z,3.30
2019-02-17T21:18:15.210Z,3.30
2019-02-17T21:20:45.915Z,3.40
2019-02-17T21:23:16.408Z,3.30
2019-02-17T21:25:47.016Z,3.30
2019-02-17T21:28:17.605Z,3.40
2019-02-17T21:30:50.462Z,3.30
2019-02-17T21:33:20.467Z,3.40
2019-02-17T21:35:50.840Z,3.40
2019-02-17T21:38:21.206Z,3.40
2019-02-17T21:40:51.785Z,3.30
2019-02-17T21:43:22.529Z,3.40
2019-02-17T21:45:53.020Z,3.40
2019-02-17T21:48:23.329Z,3.50
2019-02-17T21:50:53.826Z,3.50
2019-02-17T21:53:24.285Z,3.40
2019-02-17T21:55:54.953Z,3.40
2019-02-17T21:58:25.945Z,3.30
2019-02-17T22:03:40.098Z,3.10
2019-02-17T22:06:10.835Z,3.00
2019-02-17T22:08:42.192Z,3.00
2019-02-17T22:11:12.737Z,2.90
2019-02-17T22:13:43.382Z,2.90
2019-02-17T22:16:13.990Z,2.90
2019-02-17T22:18:44.590Z,2.80
2019-02-17T22:21:15.110Z,2.80
2019-02-17T22:23:48.779Z,2.70
2019-02-17T22:26:19.310Z,2.60
2019-02-17T22:28:51.126Z,2.50
2019-02-17T22:31:21.631Z,2.40
2019-02-17T22:33:52.181Z,2.30
2019-02-17T22:36:22.683Z,2.20
2019-02-17T22:38:53.443Z,2.30
2019-02-17T22:41:25.885Z,2.30
2019-02-17T22:43:56.569Z,2.20
2019-02-17T22:46:27.242Z,2.10
2019-02-17T22:48:57.636Z,2.10
2019-02-17T22:51:28.345Z,2.00
2019-02-17T22:53:59.189Z,2.00
2019-02-17T22:56:29.590Z,1.90
2019-02-17T22:59:01.268Z,1.80
2019-02-17T23:01:33.350Z,1.80
2019-02-17T23:04:03.862Z,1.80
2019-02-17T23:06:34.314Z,1.60
2019-02-17T23:09:07.807Z,1.70
2019-02-17T23:11:38.456Z,1.80
2019-02-17T23:14:08.881Z,1.80
2019-02-17T23:16:39.292Z,1.80
2019-02-17T23:19:09.816Z,1.70
2019-02-17T23:21:40.195Z,1.70
2019-02-17T23:24:10.872Z,1.70
2019-02-17T23:26:41.381Z,1.80
2019-02-17T23:29:12.094Z,1.80
2019-02-17T23:31:42.521Z,1.80
2019-02-17T23:34:12.931Z,1.90
2019-02-17T23:36:43.594Z,2.10
2019-02-17T23:39:14.375Z,2.00
2019-02-17T23:41:45.050Z,2.00
2019-02-17T23:44:15.725Z,1.90
2019-02-17T23:46:46.326Z,1.90
2019-02-17T23:49:17.135Z,1.80
2019-02-17T23:51:47.650Z,1.80
2019-02-17T23:54:18.166Z,1.70
2019-02-17T23:56:48.534Z,1.70
2019-02-17T23:59:19.289Z,1.60
